createdAt,value
2023-04-28T00:01:41.983Z,11.35
2023-04-28T00:04:09.214Z,11.34
2023-04-28T00:06:37.228Z,11.20
2023-04-28T00:09:04.158Z,11.34
2023-04-28T00:11:31.034Z,11.10
2023-04-28T00:13:57.855Z,11.06
2023-04-28T00:16:24.724Z,11.08
2023-04-28T00:18:52.142Z,11.16
2023-04-28T00:21:18.932Z,11.22
2023-04-28T00:23:46.017Z,11.06
2023-04-28T00:26:12.915Z,11.42
2023-04-28T00:28:42.621Z,11.53
2023-04-28T00:31:14.445Z,11.63
2023-04-28T00:33:41.602Z,11.77
2023-04-28T00:36:09.131Z,12.16
2023-04-28T00:38:37.197Z,11.98
2023-04-28T00:41:04.729Z,12.04
2023-04-28T00:43:31.684Z,11.99
2023-04-28T00:45:58.554Z,11.64
2023-04-28T00:48:25.689Z,11.64
2023-04-28T00:50:52.707Z,11.58
2023-04-28T00:53:19.570Z,11.26
2023-04-28T00:55:48.178Z,11.10
2023-04-28T00:58:15.204Z,11.10
2023-04-28T01:00:42.450Z,10.82
2023-04-28T01:03:09.657Z,10.62
2023-04-28T01:05:37.023Z,10.49
2023-04-28T01:08:04.828Z,10.38
2023-04-28T01:10:33.753Z,10.30
2023-04-28T01:13:07.902Z,10.24
2023-04-28T01:15:35.339Z,10.08
2023-04-28T01:18:02.143Z,10.00
2023-04-28T01:20:29.832Z,10.19
2023-04-28T01:22:56.949Z,10.39
2023-04-28T01:25:23.900Z,10.46
2023-04-28T01:27:51.164Z,10.28
2023-04-28T01:30:18.528Z,10.33
2023-04-28T01:32:45.425Z,10.33
2023-04-28T01:35:12.377Z,10.11
2023-04-28T01:37:39.266Z,10.32
2023-04-28T01:40:06.641Z,10.25
2023-04-28T01:42:33.415Z,9.92
2023-04-28T01:45:03.465Z,10.01
2023-04-28T01:47:30.362Z,10.08
2023-04-28T01:49:57.385Z,10.14
2023-04-28T01:52:24.498Z,10.10
2023-04-28T01:54:52.279Z,10.21
2023-04-28T01:57:20.505Z,10.16
2023-04-28T01:59:49.540Z,9.97
2023-04-28T02:02:16.683Z,10.26
2023-04-28T02:04:43.680Z,10.11
2023-04-28T02:07:10.577Z,10.01
2023-04-28T02:09:37.439Z,9.94
2023-04-28T02:12:04.528Z,10.09
2023-04-28T02:14:32.401Z,9.88
2023-04-28T02:16:59.658Z,9.93
2023-04-28T02:19:26.560Z,10.06
2023-04-28T02:21:53.654Z,10.08
2023-04-28T02:24:20.479Z,9.97
2023-04-28T02:26:47.356Z,9.97
2023-04-28T02:29:14.283Z,9.95
2023-04-28T02:31:41.257Z,10.05
2023-04-28T02:34:08.186Z,10.05
2023-04-28T02:36:35.124Z,10.02
2023-04-28T02:39:02.224Z,9.97
2023-04-28T02:41:31.168Z,9.95
2023-04-28T02:43:58.076Z,9.99
2023-04-28T02:46:24.949Z,10.01
2023-04-28T02:48:51.813Z,9.91
2023-04-28T02:51:18.708Z,9.95
2023-04-28T02:53:45.664Z,10.02
2023-04-28T02:56:13.288Z,9.96
2023-04-28T02:58:40.512Z,10.03
2023-04-28T03:01:07.515Z,10.04
2023-04-28T03:03:34.528Z,10.03
2023-04-28T03:06:01.510Z,10.05
2023-04-28T03:08:28.488Z,9.94
2023-04-28T03:10:55.710Z,9.95
2023-04-28T03:13:22.588Z,10.03
2023-04-28T03:15:50.149Z,10.04
2023-04-28T03:18:17.518Z,10.07
2023-04-28T03:20:45.125Z,10.10
2023-04-28T03:23:11.938Z,10.10
2023-04-28T03:25:38.764Z,10.02
2023-04-28T03:28:06.121Z,10.10
2023-04-28T03:30:32.942Z,10.06
2023-04-28T03:32:59.934Z,9.98
2023-04-28T03:35:27.092Z,9.91
2023-04-28T03:37:54.386Z,9.93
2023-04-28T03:40:21.368Z,9.95
2023-04-28T03:43:06.679Z,9.85
2023-04-28T03:45:37.830Z,10.05
2023-04-28T03:48:05.240Z,10.10
2023-04-28T03:50:32.799Z,10.25
2023-04-28T03:52:59.992Z,10.36
2023-04-28T03:55:27.585Z,10.24
2023-04-28T03:57:54.616Z,10.03
2023-04-28T04:00:21.765Z,10.24
2023-04-28T04:02:52.205Z,10.31
2023-04-28T04:05:19.355Z,10.41
2023-04-28T04:07:46.357Z,10.46
2023-04-28T04:10:13.253Z,10.30
2023-04-28T04:12:42.791Z,10.27
2023-04-28T04:15:12.814Z,10.29
2023-04-28T04:17:41.579Z,10.30
2023-04-28T04:20:09.051Z,10.36
2023-04-28T04:22:36.494Z,10.45
2023-04-28T04:25:03.633Z,10.66
2023-04-28T04:27:31.925Z,10.59
2023-04-28T04:30:03.403Z,10.44
2023-04-28T04:32:30.440Z,10.48
2023-04-28T04:34:57.591Z,10.48
2023-04-28T04:37:25.388Z,10.44
2023-04-28T04:39:58.153Z,10.48
2023-04-28T04:42:26.091Z,10.62
2023-04-28T04:45:12.491Z,10.79
2023-04-28T04:47:40.149Z,10.79
2023-04-28T04:50:07.947Z,10.67
2023-04-28T04:52:34.925Z,10.70
2023-04-28T04:55:02.547Z,10.69
2023-04-28T04:57:30.123Z,10.64
2023-04-28T05:00:26.420Z,10.77
2023-04-28T05:02:54.878Z,10.82
2023-04-28T05:05:23.205Z,10.96
2023-04-28T05:08:16.395Z,10.92
2023-04-28T05:10:43.285Z,10.95
2023-04-28T05:13:10.552Z,10.93
2023-04-28T05:15:38.135Z,10.90
2023-04-28T05:18:32.963Z,10.99
2023-04-28T05:20:59.908Z,11.06
2023-04-28T05:23:26.712Z,10.88
2023-04-28T05:25:53.677Z,10.80
2023-04-28T05:28:22.144Z,11.00
2023-04-28T05:30:50.827Z,10.99
2023-04-28T05:33:17.716Z,11.02
2023-04-28T05:35:44.722Z,10.91
2023-04-28T05:38:11.554Z,10.75
2023-04-28T05:40:38.615Z,10.80
2023-04-28T05:43:05.537Z,11.19
2023-04-28T05:45:32.436Z,11.17
2023-04-28T05:47:59.703Z,11.05
2023-04-28T05:50:27.035Z,11.23
2023-04-28T05:52:54.200Z,11.33
2023-04-28T05:55:22.115Z,11.43
2023-04-28T05:57:52.820Z,11.51
2023-04-28T06:00:21.823Z,11.74
2023-04-28T06:02:49.300Z,11.85
2023-04-28T06:05:16.727Z,12.14
2023-04-28T06:07:44.521Z,12.27
2023-04-28T06:10:11.729Z,12.07
2023-04-28T06:12:39.520Z,11.96
2023-04-28T06:15:06.908Z,12.11
2023-04-28T06:17:34.309Z,12.03
2023-04-28T06:20:01.493Z,11.98
2023-04-28T06:22:28.461Z,12.04
2023-04-28T06:24:55.288Z,12.29
2023-04-28T06:27:32.902Z,12.28
2023-04-28T06:29:59.806Z,12.18
2023-04-28T06:32:26.753Z,12.27
2023-04-28T06:34:53.632Z,12.20
2023-04-28T06:37:20.566Z,12.33
2023-04-28T06:39:48.028Z,12.37
2023-04-28T06:42:18.533Z,12.44
2023-04-28T06:44:52.700Z,12.53
2023-04-28T06:47:20.055Z,12.73
2023-04-28T06:49:50.264Z,12.98
2023-04-28T06:52:17.330Z,13.42
2023-04-28T06:54:44.282Z,13.85
2023-04-28T06:57:11.115Z,13.97
2023-04-28T06:59:38.323Z,14.20
2023-04-28T07:02:05.409Z,13.97
2023-04-28T07:04:32.334Z,14.16
2023-04-28T07:06:59.238Z,14.39
2023-04-28T07:09:26.149Z,14.72
2023-04-28T07:11:53.104Z,14.77
2023-04-28T07:14:20.193Z,14.93
2023-04-28T07:16:47.265Z,14.96
2023-04-28T07:19:14.151Z,15.06
2023-04-28T07:21:41.005Z,14.78
2023-04-28T07:24:07.930Z,14.56
2023-04-28T07:26:34.782Z,14.63
2023-04-28T07:29:02.109Z,14.79
2023-04-28T07:31:29.223Z,15.13
2023-04-28T07:33:56.619Z,15.36
2023-04-28T07:36:23.640Z,15.34
2023-04-28T07:38:50.714Z,15.63
2023-04-28T07:41:18.820Z,15.93
2023-04-28T07:43:45.705Z,16.11
2023-04-28T07:46:13.341Z,16.01
2023-04-28T07:48:40.314Z,16.04
2023-04-28T07:51:07.276Z,15.45
2023-04-28T07:53:34.266Z,15.16
2023-04-28T07:56:01.220Z,15.43
2023-04-28T07:58:28.207Z,15.27
2023-04-28T08:00:55.003Z,15.09
2023-04-28T08:03:22.255Z,14.93
2023-04-28T08:05:49.389Z,14.98
2023-04-28T08:08:16.333Z,15.01
2023-04-28T08:10:43.965Z,15.14
2023-04-28T08:13:10.883Z,15.60
2023-04-28T08:15:37.692Z,15.68
2023-04-28T08:18:04.655Z,15.92
2023-04-28T08:20:32.697Z,16.34
2023-04-28T08:22:59.848Z,16.48
2023-04-28T08:25:26.712Z,16.34
2023-04-28T08:27:57.211Z,16.51
2023-04-28T08:30:24.581Z,16.75
2023-04-28T08:32:51.540Z,16.75
2023-04-28T08:35:19.460Z,17.05
2023-04-28T08:37:47.834Z,16.56
2023-04-28T08:40:15.265Z,16.46
2023-04-28T08:42:42.566Z,16.38
2023-04-28T08:45:14.142Z,16.39
2023-04-28T08:47:45.894Z,16.42
2023-04-28T08:50:13.417Z,16.08
2023-04-28T08:52:42.356Z,15.95
2023-04-28T08:55:13.567Z,15.71
2023-04-28T08:57:44.725Z,15.69
2023-04-28T09:00:12.758Z,15.55
2023-04-28T09:02:42.425Z,15.37
2023-04-28T09:05:11.379Z,15.40
2023-04-28T09:07:38.753Z,15.26
2023-04-28T09:10:21.945Z,15.23
2023-04-28T09:12:51.829Z,15.39
2023-04-28T09:15:28.550Z,15.33
2023-04-28T09:17:56.008Z,15.62
2023-04-28T09:20:28.003Z,15.62
2023-04-28T09:22:55.893Z,15.55
2023-04-28T09:25:23.846Z,15.27
2023-04-28T09:27:50.873Z,15.45
2023-04-28T09:30:17.887Z,15.70
2023-04-28T09:32:44.941Z,16.05
2023-04-28T09:35:11.898Z,15.95
2023-04-28T09:37:38.813Z,15.95
2023-04-28T09:40:10.606Z,15.95
2023-04-28T09:42:40.008Z,15.93
2023-04-28T09:45:14.377Z,16.14
2023-04-28T09:47:43.583Z,16.08
2023-04-28T09:50:15.193Z,15.78
2023-04-28T09:52:56.897Z,15.75
2023-04-28T09:55:24.542Z,16.07
2023-04-28T09:57:55.168Z,16.37
2023-04-28T10:00:23.588Z,15.99
2023-04-28T10:02:52.072Z,16.12
2023-04-28T10:05:20.134Z,16.21
2023-04-28T10:07:47.299Z,16.43
2023-04-28T10:10:14.995Z,16.41
2023-04-28T10:12:42.241Z,16.25
2023-04-28T10:15:10.549Z,16.03
2023-04-28T10:17:39.137Z,16.05
2023-04-28T10:20:06.694Z,16.18
2023-04-28T10:23:01.535Z,15.90
2023-04-28T10:25:36.720Z,16.14
2023-04-28T10:28:08.945Z,16.31
2023-04-28T10:30:36.225Z,16.32
2023-04-28T10:33:09.669Z,16.10
2023-04-28T10:35:40.873Z,15.91
2023-04-28T10:38:15.041Z,15.95
2023-04-28T10:40:46.347Z,16.16
2023-04-28T10:43:25.681Z,16.51
2023-04-28T10:45:56.214Z,17.14
2023-04-28T10:48:46.608Z,17.27
2023-04-28T10:51:16.485Z,16.96
2023-04-28T10:53:47.130Z,16.93
2023-04-28T10:56:27.872Z,17.03
2023-04-28T10:58:56.138Z,16.93
2023-04-28T11:01:24.947Z,16.41
2023-04-28T11:04:00.169Z,16.53
2023-04-28T11:06:28.953Z,16.57
2023-04-28T11:08:57.860Z,16.55
2023-04-28T11:11:39.202Z,16.45
2023-04-28T11:14:18.464Z,16.41
2023-04-28T11:17:04.494Z,17.06
2023-04-28T11:19:31.350Z,17.94
2023-04-28T11:22:00.193Z,17.94
2023-04-28T11:24:29.473Z,17.39
2023-04-28T11:26:58.048Z,17.21
2023-04-28T11:29:33.505Z,16.97
2023-04-28T11:32:01.084Z,17.18
2023-04-28T11:34:28.261Z,17.02
2023-04-28T11:36:55.237Z,17.46
2023-04-28T11:39:32.394Z,17.46
2023-04-28T11:42:02.486Z,16.91
2023-04-28T11:44:31.281Z,17.01
2023-04-28T11:47:01.176Z,17.00
2023-04-28T11:49:30.582Z,17.16
2023-04-28T11:52:00.456Z,17.67
2023-04-28T11:54:29.233Z,17.92
2023-04-28T11:56:57.918Z,17.74
2023-04-28T11:59:38.275Z,17.59
2023-04-28T12:02:07.568Z,17.19
2023-04-28T12:04:42.580Z,17.06
2023-04-28T12:07:14.176Z,16.89
2023-04-28T12:09:44.586Z,16.89
2023-04-28T12:12:40.533Z,16.80
2023-04-28T12:15:12.785Z,16.66
2023-04-28T12:17:43.373Z,16.56
2023-04-28T12:20:12.793Z,16.85
2023-04-28T12:22:47.673Z,16.98
2023-04-28T12:25:18.069Z,16.74
2023-04-28T12:28:08.172Z,16.90
2023-04-28T12:30:42.640Z,16.91
2023-04-28T12:33:27.125Z,16.66
2023-04-28T12:35:56.160Z,16.42
2023-04-28T12:38:23.988Z,16.76
2023-04-28T12:40:50.895Z,17.05
2023-04-28T12:43:17.805Z,16.89
2023-04-28T12:45:44.664Z,16.88
2023-04-28T12:48:11.543Z,17.03
2023-04-28T12:50:38.416Z,17.22
2023-04-28T12:53:05.383Z,17.15
2023-04-28T12:55:32.487Z,17.21
2023-04-28T12:57:59.563Z,16.96
2023-04-28T13:00:26.549Z,17.22
2023-04-28T13:02:53.672Z,17.30
2023-04-28T13:05:20.713Z,17.15
2023-04-28T13:07:49.424Z,17.26
2023-04-28T13:10:16.766Z,17.65
2023-04-28T13:12:43.737Z,17.51
2023-04-28T13:15:11.303Z,18.14
2023-04-28T13:17:38.606Z,18.55
2023-04-28T13:20:07.063Z,18.15
2023-04-28T13:22:33.877Z,18.04
2023-04-28T13:25:00.713Z,18.00
2023-04-28T13:27:30.460Z,18.08
2023-04-28T13:29:59.414Z,17.75
2023-04-28T13:32:28.281Z,17.47
2023-04-28T13:34:55.196Z,17.34
2023-04-28T13:37:21.965Z,17.21
2023-04-28T13:39:48.852Z,17.73
2023-04-28T13:42:16.240Z,17.65
2023-04-28T13:44:43.292Z,17.26
2023-04-28T13:47:11.134Z,17.41
2023-04-28T13:49:39.745Z,17.80
2023-04-28T13:52:06.588Z,18.28
2023-04-28T13:54:33.430Z,18.26
2023-04-28T13:57:00.274Z,18.15
2023-04-28T13:59:27.402Z,17.94
2023-04-28T14:01:54.315Z,17.91
2023-04-28T14:04:21.400Z,17.44
2023-04-28T14:06:48.563Z,17.48
2023-04-28T14:09:15.734Z,17.91
2023-04-28T14:11:42.673Z,17.99
2023-04-28T14:14:09.427Z,17.78
2023-04-28T14:16:36.546Z,17.62
2023-04-28T14:19:03.430Z,17.14
2023-04-28T14:21:30.266Z,17.24
2023-04-28T14:23:57.026Z,17.38
2023-04-28T14:26:24.408Z,17.54
2023-04-28T14:28:51.243Z,17.25
2023-04-28T14:31:18.310Z,17.15
2023-04-28T14:33:45.189Z,16.84
2023-04-28T14:36:12.124Z,16.27
2023-04-28T14:38:40.289Z,16.17
2023-04-28T14:41:07.318Z,16.26
2023-04-28T14:43:34.897Z,16.57
2023-04-28T14:46:01.949Z,16.50
2023-04-28T14:48:28.835Z,16.75
2023-04-28T14:53:22.526Z,17.48
2023-04-28T14:55:49.905Z,17.56
2023-04-28T14:58:16.739Z,17.68
2023-04-28T15:00:43.812Z,17.93
2023-04-28T15:03:10.852Z,18.17
2023-04-28T15:05:37.708Z,17.98
2023-04-28T15:08:04.820Z,17.99
2023-04-28T15:10:38.579Z,18.01
2023-04-28T15:13:06.954Z,17.70
2023-04-28T15:15:33.811Z,17.67
2023-04-28T15:18:01.187Z,17.79
2023-04-28T15:20:30.629Z,17.72
2023-04-28T15:22:57.655Z,17.46
2023-04-28T15:25:24.693Z,17.06
2023-04-28T15:27:51.567Z,16.99
2023-04-28T15:30:19.555Z,16.76
2023-04-28T15:32:46.731Z,16.55
2023-04-28T15:35:13.809Z,16.65
2023-04-28T15:37:43.481Z,16.41
2023-04-28T15:40:21.419Z,16.41
2023-04-28T15:42:54.452Z,16.40
2023-04-28T15:45:22.386Z,16.28
2023-04-28T15:47:50.731Z,16.50
2023-04-28T15:50:20.401Z,16.27
2023-04-28T15:52:50.130Z,16.57
2023-04-28T15:55:18.748Z,16.47
2023-04-28T15:57:46.341Z,16.59
2023-04-28T16:00:17.036Z,16.42
2023-04-28T16:02:45.008Z,16.55
2023-04-28T16:05:12.924Z,16.50
2023-04-28T16:07:41.240Z,16.14
2023-04-28T16:10:13.126Z,15.91
2023-04-28T16:12:41.172Z,15.64
2023-04-28T16:15:10.287Z,15.41
2023-04-28T16:17:38.653Z,15.27
2023-04-28T16:20:07.238Z,15.18
2023-04-28T16:22:35.119Z,15.15
2023-04-28T16:25:03.980Z,15.27
2023-04-28T16:27:32.234Z,15.31
2023-04-28T16:29:59.576Z,15.19
2023-04-28T16:32:27.010Z,15.12
2023-04-28T16:34:57.506Z,15.01
2023-04-28T16:37:24.357Z,15.30
2023-04-28T16:39:51.719Z,15.09
2023-04-28T16:42:21.037Z,14.94
2023-04-28T16:44:48.773Z,14.77
2023-04-28T16:47:16.896Z,14.82
2023-04-28T16:49:43.756Z,14.71
2023-04-28T16:52:10.746Z,14.68
2023-04-28T16:54:37.640Z,14.56
2023-04-28T16:57:05.093Z,14.33
2023-04-28T16:59:33.376Z,14.12
2023-04-28T17:02:01.971Z,14.12
2023-04-28T17:04:29.063Z,14.03
2023-04-28T17:06:56.498Z,14.09
2023-04-28T17:09:23.499Z,14.05
2023-04-28T17:11:50.350Z,14.00
2023-04-28T17:14:17.895Z,13.76
2023-04-28T17:16:44.895Z,13.70
2023-04-28T17:19:12.365Z,13.60
2023-04-28T17:21:39.283Z,13.59
2023-04-28T17:24:06.440Z,13.71
2023-04-28T17:26:33.311Z,13.49
2023-04-28T17:29:00.490Z,13.54
2023-04-28T17:31:29.039Z,13.44
2023-04-28T17:33:58.681Z,13.33
2023-04-28T17:36:28.809Z,13.29
2023-04-28T17:38:55.914Z,13.18
2023-04-28T17:41:23.169Z,13.17
2023-04-28T17:43:53.893Z,13.29
2023-04-28T17:46:21.916Z,13.29
2023-04-28T17:48:49.166Z,13.21
2023-04-28T17:51:16.865Z,13.27
2023-04-28T17:53:46.262Z,12.94
2023-04-28T17:56:13.087Z,13.04
2023-04-28T17:58:39.929Z,13.00
2023-04-28T18:01:08.236Z,12.98
2023-04-28T18:03:36.774Z,13.01
2023-04-28T18:06:07.785Z,12.99
2023-04-28T18:08:36.601Z,12.97
2023-04-28T18:11:03.981Z,12.96
2023-04-28T18:13:31.037Z,12.68
2023-04-28T18:15:58.064Z,12.70
2023-04-28T18:18:25.512Z,12.62
2023-04-28T18:21:00.430Z,12.75
2023-04-28T18:23:27.469Z,12.63
2023-04-28T18:25:54.449Z,12.57
2023-04-28T18:28:21.505Z,12.35
2023-04-28T18:30:48.369Z,12.41
2023-04-28T18:33:15.189Z,12.49
2023-04-28T18:35:41.984Z,12.53
2023-04-28T18:38:08.787Z,12.43
2023-04-28T18:40:38.676Z,12.30
2023-04-28T18:43:06.631Z,12.10
2023-04-28T18:45:35.794Z,12.28
2023-04-28T18:48:04.609Z,12.20
2023-04-28T18:50:33.266Z,12.06
2023-04-28T18:53:01.278Z,12.18
2023-04-28T18:55:28.228Z,12.16
2023-04-28T18:57:55.156Z,12.04
2023-04-28T19:00:22.447Z,12.12
2023-04-28T19:02:49.407Z,12.22
2023-04-28T19:05:16.394Z,12.24
2023-04-28T19:07:43.203Z,12.13
2023-04-28T19:10:10.785Z,12.05
2023-04-28T19:12:37.701Z,12.02
2023-04-28T19:15:06.075Z,11.83
2023-04-28T19:17:33.239Z,11.88
2023-04-28T19:20:00.289Z,11.86
2023-04-28T19:22:36.158Z,11.47
2023-04-28T19:25:04.592Z,11.19
2023-04-28T19:27:33.743Z,11.30
2023-04-28T19:30:02.093Z,11.18
2023-04-28T19:32:29.395Z,11.18
2023-04-28T19:34:56.272Z,11.21
2023-04-28T19:37:24.149Z,11.17
2023-04-28T19:39:51.433Z,11.13
2023-04-28T19:42:19.104Z,11.04
2023-04-28T19:44:47.355Z,10.99
2023-04-28T19:47:22.595Z,10.82
2023-04-28T19:49:51.230Z,10.73
2023-04-28T19:52:21.014Z,10.79
2023-04-28T19:57:01.840Z,10.97
2023-04-28T19:59:28.810Z,10.99
2023-04-28T20:01:55.626Z,10.89
2023-04-28T20:04:22.654Z,10.87
2023-04-28T20:06:49.647Z,10.73
2023-04-28T20:09:16.760Z,10.55
2023-04-28T20:11:43.647Z,10.26
2023-04-28T20:14:10.435Z,10.36
2023-04-28T20:16:37.559Z,10.14
2023-04-28T20:19:04.485Z,10.18
2023-04-28T20:21:31.797Z,10.18
2023-04-28T20:23:58.626Z,10.09
2023-04-28T20:26:25.673Z,9.97
2023-04-28T20:28:54.273Z,10.05
2023-04-28T20:31:21.182Z,10.00
2023-04-28T20:33:48.128Z,10.05
2023-04-28T20:36:15.020Z,10.05
2023-04-28T20:38:43.547Z,9.89
2023-04-28T20:41:11.044Z,9.28
2023-04-28T20:43:38.529Z,9.51
2023-04-28T20:46:13.498Z,9.72
2023-04-28T20:48:40.903Z,9.65
2023-04-28T20:51:07.872Z,9.70
2023-04-28T20:53:37.598Z,9.78
2023-04-28T20:56:04.839Z,9.55
2023-04-28T20:58:31.651Z,9.17
2023-04-28T21:00:59.233Z,9.20
2023-04-28T21:03:26.655Z,9.42
2023-04-28T21:05:53.664Z,9.40
2023-04-28T21:08:20.512Z,9.37
2023-04-28T21:10:47.380Z,9.21
2023-04-28T21:13:14.289Z,9.32
2023-04-28T21:15:41.590Z,9.28
2023-04-28T21:18:08.578Z,9.22
2023-04-28T21:20:35.854Z,9.30
2023-04-28T21:23:02.925Z,9.26
2023-04-28T21:25:30.115Z,9.26
2023-04-28T21:27:57.857Z,9.25
2023-04-28T21:30:25.845Z,9.30
2023-04-28T21:32:52.725Z,9.36
2023-04-28T21:35:19.660Z,9.42
2023-04-28T21:37:46.485Z,9.36
2023-04-28T21:40:14.082Z,9.42
2023-04-28T21:42:40.878Z,9.33
2023-04-28T21:45:09.505Z,9.19
2023-04-28T21:47:36.415Z,9.34
2023-04-28T21:50:03.379Z,9.29
2023-04-28T21:52:30.481Z,9.32
2023-04-28T21:54:57.352Z,9.29
2023-04-28T21:57:24.210Z,9.21
2023-04-28T21:59:51.237Z,9.17
2023-04-28T22:02:18.566Z,8.75
2023-04-28T22:04:45.813Z,8.39
2023-04-28T22:07:12.658Z,8.35
2023-04-28T22:09:39.562Z,8.32
2023-04-28T22:12:06.395Z,8.32
2023-04-28T22:17:03.005Z,8.31
2023-04-28T22:19:29.781Z,8.41
2023-04-28T22:21:56.841Z,8.42
2023-04-28T22:24:23.690Z,8.46
2023-04-28T22:26:50.540Z,8.52
2023-04-28T22:29:17.449Z,8.68
2023-04-28T22:31:44.500Z,8.63
2023-04-28T22:34:11.344Z,8.67
2023-04-28T22:36:38.281Z,8.79
2023-04-28T22:39:05.785Z,8.81
2023-04-28T22:41:32.728Z,8.72
2023-04-28T22:43:59.604Z,8.63
2023-04-28T22:46:26.445Z,8.52
2023-04-28T22:48:53.295Z,8.55
2023-04-28T22:51:20.451Z,8.35
2023-04-28T22:53:48.481Z,8.31
2023-04-28T22:56:15.995Z,8.31
2023-04-28T22:58:42.823Z,8.17
2023-04-28T23:01:09.776Z,8.34
2023-04-28T23:03:38.406Z,8.28
2023-04-28T23:06:05.554Z,8.23
2023-04-28T23:08:32.495Z,8.17
2023-04-28T23:10:59.309Z,8.23
2023-04-28T23:13:26.378Z,8.22
2023-04-28T23:15:53.445Z,8.15
2023-04-28T23:18:20.885Z,7.94
2023-04-28T23:20:48.874Z,8.01
2023-04-28T23:23:16.136Z,8.04
2023-04-28T23:25:43.410Z,8.01
2023-04-28T23:28:10.513Z,8.02
2023-04-28T23:30:37.376Z,8.08
2023-04-28T23:33:04.614Z,8.04
2023-04-28T23:35:33.223Z,7.94
2023-04-28T23:38:00.153Z,7.88
2023-04-28T23:40:27.539Z,7.84
2023-04-28T23:42:54.483Z,7.86
2023-04-28T23:45:21.330Z,7.98
2023-04-28T23:47:48.192Z,7.84
2023-04-28T23:50:15.194Z,7.67
2023-04-28T23:52:42.847Z,7.73
2023-04-28T23:55:10.747Z,7.74
2023-04-28T23:57:38.559Z,7.60
